Hurlburt Field, FL

11:42 AM CDT on April 25, 2015 (GMT -0500)
Crestview | | Change Station
CLOSE
Current Station
Airport
Location: Crestview,
Elevation: 194 ft
Nearby Weather Stations

Elev 194 ft 30.65 °N, 86.52 °W | Updated 44 minutes ago

Overcast
Overcast
81 °F
Feels Like 86 °F
N
14
Wind Variable Wind from SW
Gusts 24 mph

Today
High -- | Low -- °F
--% Chance of Precip.
Yesterday
High -- | Low -- °F
Precip. -- in
6:09 AM 7:20 PM
Waxing Crescent, 47% visible
Pressure 29.81 in
Visibility 10.0 miles
Clouds Scattered Clouds 1700 ft
Scattered Clouds 21000 ft
Heat Index 86 °F
Dew Point 74 °F
Humidity 79%
Rainfall 0.18 in
Snow Depth Not available.
UV 8 out of 12
Pollen 8.70 out of 12
Air Quality Not available.
Flu Activity Local Activity
METAR KEGI 251558Z AUTO 22012G21KT 10SM SCT017 SCT210 27/23 A2980 RMK AO2 SLP092 T02710231 $

More Conditions Fewer Conditions

Pressure 29.81 in
Visibility 10.0 miles
Clouds Scattered Clouds 1700 ft
Scattered Clouds 21000 ft
Heat Index 86 °F
Dew Point 74 °F
Humidity 79%
Rainfall 0.18 in
Snow Depth Not available.
UV 8 out of 12
Pollen 8.70 out of 12
Air Quality Not available.
Flu Activity Local Activity
METAR KEGI 251558Z AUTO 22012G21KT 10SM SCT017 SCT210 27/23 A2980 RMK AO2 SLP092 T02710231 $

More Conditions Fewer Conditions

10-Day Weather Forecast

Almanac

Astronomy

Apr. 25, 2015 Rise Set
Actual Time
Civil Twilight
Nautical Twilight
Astronomical Twilight
Moon
Length of Visible Light
Length of Day
Tomorrow will be .
, % of the Moon is Illuminated

Today's Extremes

State Highs State Lows

Community

WunderPhotos

Upload Photos

1,816,737 photos uploaded!

WunderBlogs® & News

Nearby

Air Quality

  Air Quality AQ Index Pollutant
Not available.

Snow Depth

Station Depth Elevation

Earthquake Activity

City Distance Mag. Time & Date
Minimum magnitude displayed is 2.5.

Coastal Water Temperatures

Place Temperature

Stations

Nearby Weather Stations

Station Location Temp. Windchill Dew Point Humidity Wind Precip. Elev Updated Type